createdAt,value
2019-04-25T00:01:16.930Z,8.95
2019-04-25T00:03:48.723Z,9.63
2019-04-25T00:06:21.546Z,11.53
2019-04-25T00:08:54.158Z,12.00
2019-04-25T00:11:26.672Z,13.45
2019-04-25T00:13:58.601Z,8.80
2019-04-25T00:16:32.471Z,7.62
2019-04-25T00:19:04.263Z,9.00
2019-04-25T00:21:46.688Z,7.58
2019-04-25T00:24:27.944Z,7.92
2019-04-25T00:26:59.773Z,8.33
2019-04-25T00:29:31.902Z,7.42
2019-04-25T00:32:04.147Z,9.28
2019-04-25T00:34:35.748Z,9.43
2019-04-25T00:37:07.864Z,10.95
2019-04-25T00:39:39.599Z,12.90
2019-04-25T00:42:12.200Z,9.95
2019-04-25T00:44:45.044Z,8.90
2019-04-25T00:47:17.614Z,8.48
2019-04-25T00:49:49.049Z,8.40
2019-04-25T00:52:22.753Z,8.33
2019-04-25T00:54:54.590Z,9.00
2019-04-25T00:57:27.580Z,8.15
2019-04-25T01:00:18.492Z,7.58
2019-04-25T01:02:53.197Z,7.45
2019-04-25T01:05:24.635Z,8.15
2019-04-25T01:07:56.051Z,8.30
2019-04-25T01:10:28.092Z,8.35
2019-04-25T01:13:01.367Z,8.63
2019-04-25T01:15:33.542Z,8.95
2019-04-25T01:18:06.624Z,8.50
2019-04-25T01:20:38.418Z,11.05
2019-04-25T01:23:09.900Z,10.20
2019-04-25T01:25:43.090Z,12.70
2019-04-25T01:28:15.543Z,16.02
2019-04-25T01:30:47.883Z,11.55
2019-04-25T01:33:20.103Z,10.13
2019-04-25T01:35:57.468Z,8.45
2019-04-25T01:38:56.638Z,8.05
2019-04-25T01:41:55.022Z,7.85
2019-04-25T01:44:34.080Z,8.73
2019-04-25T01:47:05.997Z,10.82
2019-04-25T01:49:37.662Z,10.23
2019-04-25T01:52:09.381Z,9.00
2019-04-25T01:54:41.107Z,8.55
2019-04-25T01:57:14.250Z,7.72
2019-04-25T01:59:46.207Z,7.62
2019-04-25T02:02:23.362Z,7.97
2019-04-25T02:04:58.765Z,8.60
2019-04-25T02:07:28.893Z,9.45
2019-04-25T02:10:01.688Z,7.28
2019-04-25T02:12:43.570Z,8.30
2019-04-25T02:15:16.966Z,8.23
2019-04-25T02:20:19.184Z,7.75
2019-04-25T02:22:52.145Z,8.75
2019-04-25T02:25:24.620Z,9.53
2019-04-25T02:27:59.958Z,8.55
2019-04-25T02:30:30.129Z,7.90
2019-04-25T02:33:04.413Z,8.30
2019-04-25T02:35:42.779Z,7.62
2019-04-25T02:38:16.640Z,9.50
2019-04-25T02:40:45.730Z,8.45
2019-04-25T02:43:17.372Z,7.08
2019-04-25T02:46:20.228Z,8.18
2019-04-25T02:49:29.730Z,7.00
2019-04-25T02:52:17.979Z,8.38
2019-04-25T02:54:49.443Z,6.85
2019-04-25T02:57:20.918Z,7.25
2019-04-25T02:59:54.578Z,7.40
2019-04-25T03:02:26.054Z,7.67
2019-04-25T03:04:59.454Z,7.45
2019-04-25T03:07:31.401Z,7.70
2019-04-25T03:10:06.166Z,7.72
2019-04-25T03:12:37.676Z,8.28
2019-04-25T03:15:10.336Z,7.80
2019-04-25T03:17:44.133Z,6.80
2019-04-25T03:20:36.593Z,6.30
2019-04-25T03:23:34.946Z,6.92
2019-04-25T03:26:07.510Z,6.78
2019-04-25T03:28:39.447Z,14.65
2019-04-25T03:31:16.073Z,19.95
2019-04-25T03:33:45.945Z,12.35
2019-04-25T03:38:49.165Z,9.48
2019-04-25T03:41:20.821Z,6.80
2019-04-25T03:43:54.021Z,8.08
2019-04-25T03:46:26.045Z,7.60
2019-04-25T03:48:57.769Z,8.45
2019-04-25T03:51:29.313Z,7.67
2019-04-25T03:54:01.679Z,7.33
2019-04-25T03:59:06.336Z,6.40
2019-04-25T04:01:38.971Z,7.42
2019-04-25T04:04:11.142Z,7.45
2019-04-25T04:06:44.113Z,7.33
2019-04-25T04:11:47.048Z,7.60
2019-04-25T04:14:18.668Z,8.68
2019-04-25T04:17:08.806Z,8.23
2019-04-25T04:20:03.934Z,9.38
2019-04-25T04:22:41.035Z,9.15
2019-04-25T04:25:14.517Z,8.13
2019-04-25T04:27:46.786Z,7.80
2019-04-25T04:30:18.717Z,15.15
2019-04-25T04:32:50.430Z,11.68
2019-04-25T04:35:23.529Z,10.25
2019-04-25T04:40:26.082Z,9.78
2019-04-25T04:42:57.885Z,10.08
2019-04-25T04:45:29.498Z,10.10
2019-04-25T04:48:01.085Z,8.38
2019-04-25T04:50:33.633Z,11.45
2019-04-25T04:53:05.800Z,10.28
2019-04-25T04:55:37.966Z,9.25
2019-04-25T04:58:11.050Z,9.00
2019-04-25T05:03:39.315Z,9.65
2019-04-25T05:06:25.241Z,13.18
2019-04-25T05:09:01.229Z,22.75
2019-04-25T05:11:34.745Z,10.80
2019-04-25T05:14:06.315Z,11.20
2019-04-25T05:16:38.297Z,10.20
2019-04-25T05:19:10.249Z,9.70
2019-04-25T05:21:43.564Z,11.03
2019-04-25T05:24:16.385Z,10.38
2019-04-25T05:26:48.601Z,10.25
2019-04-25T05:29:22.482Z,8.98
2019-04-25T05:31:54.261Z,8.63
2019-04-25T05:34:26.095Z,9.25
2019-04-25T05:36:57.935Z,9.23
2019-04-25T05:39:29.804Z,10.28
2019-04-25T05:42:20.390Z,10.18
2019-04-25T05:44:52.319Z,10.28
2019-04-25T05:47:26.090Z,10.18
2019-04-25T05:49:57.228Z,10.43
2019-04-25T05:52:28.820Z,10.05
2019-04-25T05:55:00.365Z,10.82
2019-04-25T05:57:45.221Z,10.80
2019-04-25T06:00:05.840Z,10.63
2019-04-25T06:02:37.493Z,9.90
2019-04-25T06:05:10.260Z,9.03
2019-04-25T06:07:43.212Z,8.93
2019-04-25T06:10:33.927Z,8.83
2019-04-25T06:13:26.439Z,7.25
2019-04-25T06:16:20.316Z,7.15
2019-04-25T06:19:13.621Z,7.87
2019-04-25T06:21:36.451Z,7.00
2019-04-25T06:24:27.455Z,6.97
2019-04-25T06:27:19.725Z,7.00
2019-04-25T06:30:01.017Z,7.20
2019-04-25T06:32:35.467Z,6.75
2019-04-25T06:35:08.327Z,6.75
2019-04-25T06:37:39.919Z,6.30
2019-04-25T06:40:13.699Z,7.70
2019-04-25T06:42:46.910Z,7.65
2019-04-25T06:45:37.216Z,6.65
2019-04-25T06:48:46.764Z,6.70
2019-04-25T06:51:18.454Z,7.28
2019-04-25T06:53:50.327Z,7.22
2019-04-25T06:56:25.244Z,7.05
2019-04-25T06:58:57.946Z,7.45
2019-04-25T07:01:30.466Z,6.90
2019-04-25T07:04:03.992Z,6.65
2019-04-25T07:06:36.048Z,6.62
2019-04-25T07:09:10.223Z,6.60
2019-04-25T07:11:44.065Z,6.53
2019-04-25T07:14:16.109Z,6.83
2019-04-25T07:16:47.842Z,6.40
2019-04-25T07:19:19.459Z,6.53
2019-04-25T07:21:51.235Z,6.65
2019-04-25T07:24:24.815Z,6.12
2019-04-25T07:27:26.630Z,6.67
2019-04-25T07:30:26.897Z,5.47
2019-04-25T07:32:54.538Z,6.45
2019-04-25T07:35:26.775Z,7.08
2019-04-25T07:37:58.522Z,6.67
2019-04-25T07:40:31.763Z,5.50
2019-04-25T07:43:04.886Z,7.12
2019-04-25T07:45:36.990Z,6.33
2019-04-25T07:48:09.131Z,6.63
2019-04-25T07:50:41.070Z,6.12
2019-04-25T07:53:14.264Z,6.50
2019-04-25T07:55:46.297Z,5.90
2019-04-25T07:58:18.424Z,5.80
2019-04-25T08:00:50.366Z,5.90
2019-04-25T08:03:23.667Z,5.22
2019-04-25T08:05:55.885Z,5.28
2019-04-25T08:08:28.181Z,5.05
2019-04-25T08:11:05.745Z,4.97
2019-04-25T08:13:59.426Z,5.12
2019-04-25T08:16:34.321Z,4.78
2019-04-25T08:19:06.972Z,4.62
2019-04-25T08:21:39.039Z,5.80
2019-04-25T08:24:11.100Z,4.87
2019-04-25T08:26:43.675Z,4.75
2019-04-25T08:29:15.729Z,5.20
2019-04-25T08:31:47.514Z,4.50
2019-04-25T08:34:19.511Z,4.60
2019-04-25T08:36:51.599Z,4.55
2019-04-25T08:39:24.061Z,5.20
2019-04-25T08:41:57.055Z,4.90
2019-04-25T08:44:28.752Z,4.92
2019-04-25T08:47:00.645Z,5.00
2019-04-25T08:49:38.385Z,4.83
2019-04-25T08:52:10.204Z,5.40
2019-04-25T08:54:56.194Z,5.05
2019-04-25T08:57:45.105Z,4.20
2019-04-25T09:00:35.477Z,5.55
2019-04-25T09:03:06.624Z,5.35
2019-04-25T09:05:46.098Z,5.30
2019-04-25T09:08:17.325Z,5.60
2019-04-25T09:10:49.107Z,5.22
2019-04-25T09:13:20.856Z,4.97
2019-04-25T09:15:54.012Z,4.80
2019-04-25T09:18:26.064Z,4.90
2019-04-25T09:20:57.825Z,4.80
2019-04-25T09:23:29.616Z,5.22
2019-04-25T09:26:02.309Z,4.83
2019-04-25T09:28:37.606Z,4.58
2019-04-25T09:31:07.666Z,5.25
2019-04-25T09:33:39.571Z,6.13
2019-04-25T09:36:11.465Z,5.50
2019-04-25T09:38:46.990Z,5.47
2019-04-25T09:41:16.439Z,4.47
2019-04-25T09:43:48.706Z,4.55
2019-04-25T09:46:26.301Z,4.83
2019-04-25T09:49:09.751Z,5.33
2019-04-25T09:51:49.361Z,5.03
2019-04-25T09:54:39.890Z,4.47
2019-04-25T09:57:30.559Z,4.50
2019-04-25T10:00:03.675Z,4.25
2019-04-25T10:02:37.020Z,4.17
2019-04-25T10:05:09.215Z,4.92
2019-04-25T10:07:40.903Z,4.85
2019-04-25T10:10:13.514Z,4.03
2019-04-25T10:12:45.336Z,4.33
2019-04-25T10:15:39.057Z,5.03
2019-04-25T10:18:10.960Z,4.50
2019-04-25T10:20:43.485Z,4.50
2019-04-25T10:23:16.816Z,4.20
2019-04-25T10:25:48.649Z,4.25
2019-04-25T10:28:20.336Z,4.40
2019-04-25T10:30:53.169Z,5.08
2019-04-25T10:33:26.746Z,4.80
2019-04-25T10:36:00.780Z,5.15
2019-04-25T10:38:33.464Z,4.55
2019-04-25T10:41:06.751Z,4.35
2019-04-25T10:43:39.650Z,5.22
2019-04-25T10:46:14.163Z,4.85
2019-04-25T10:48:46.116Z,4.55
2019-04-25T10:51:17.738Z,4.67
2019-04-25T10:53:49.502Z,4.37
2019-04-25T10:56:20.826Z,4.72
2019-04-25T10:58:54.548Z,4.12
2019-04-25T11:01:26.318Z,4.22
2019-04-25T11:04:13.841Z,4.55
2019-04-25T11:06:45.640Z,4.70
2019-04-25T11:09:25.783Z,5.30
2019-04-25T11:12:00.732Z,4.33
2019-04-25T11:14:34.225Z,4.75
2019-04-25T11:17:06.263Z,4.00
2019-04-25T11:19:38.283Z,3.93
2019-04-25T11:22:09.753Z,4.80
2019-04-25T11:24:41.513Z,4.65
2019-04-25T11:27:14.077Z,4.60
2019-04-25T11:32:20.506Z,5.10
2019-04-25T11:34:53.202Z,4.70
2019-04-25T11:37:27.219Z,4.25
2019-04-25T11:40:05.302Z,4.35
2019-04-25T11:42:36.989Z,4.72
2019-04-25T11:45:10.643Z,4.80
2019-04-25T11:47:43.370Z,4.17
2019-04-25T11:50:15.710Z,4.80
2019-04-25T11:52:47.635Z,5.00
2019-04-25T11:55:20.121Z,4.37
2019-04-25T11:57:53.171Z,4.50
2019-04-25T12:00:27.947Z,4.78
2019-04-25T12:02:59.643Z,4.15
2019-04-25T12:05:31.256Z,6.40
2019-04-25T12:08:04.085Z,4.47
2019-04-25T12:10:36.423Z,5.08
2019-04-25T12:13:08.058Z,5.05
2019-04-25T12:15:39.982Z,4.00
2019-04-25T12:18:13.782Z,5.45
2019-04-25T12:20:46.554Z,4.50
2019-04-25T12:23:18.938Z,4.67
2019-04-25T12:25:50.368Z,5.30
2019-04-25T12:28:23.526Z,4.05
2019-04-25T12:30:56.454Z,5.33
2019-04-25T12:33:28.586Z,4.62
2019-04-25T12:36:00.527Z,4.93
2019-04-25T12:38:35.105Z,4.70
2019-04-25T12:41:05.733Z,5.35
2019-04-25T12:43:39.277Z,4.42
2019-04-25T12:46:29.312Z,5.42
2019-04-25T12:49:01.002Z,5.17
2019-04-25T12:51:33.949Z,4.20
2019-04-25T12:54:06.625Z,6.67
2019-04-25T12:59:09.203Z,5.03
2019-04-25T13:01:41.081Z,5.00
2019-04-25T13:04:15.840Z,6.12
2019-04-25T13:06:48.754Z,4.83
2019-04-25T13:09:20.910Z,5.20
2019-04-25T13:11:53.461Z,4.80
2019-04-25T13:14:25.234Z,5.00
2019-04-25T13:16:56.772Z,4.30
2019-04-25T13:19:28.456Z,5.42
2019-04-25T13:22:00.663Z,4.40
2019-04-25T13:24:32.717Z,5.80
2019-04-25T13:27:26.714Z,5.15
2019-04-25T13:30:07.913Z,5.03
2019-04-25T13:32:58.683Z,6.10
2019-04-25T13:35:38.985Z,4.55
2019-04-25T13:38:11.097Z,3.87
2019-04-25T13:40:42.786Z,4.78
2019-04-25T13:43:14.663Z,4.97
2019-04-25T13:45:46.562Z,4.83
2019-04-25T13:48:18.554Z,4.35
2019-04-25T13:50:50.318Z,3.83
2019-04-25T13:53:23.519Z,4.72
2019-04-25T13:55:55.579Z,4.92
2019-04-25T13:58:30.519Z,4.42
2019-04-25T14:01:12.345Z,4.47
2019-04-25T14:03:35.795Z,4.45
2019-04-25T14:06:07.681Z,4.67
2019-04-25T14:08:39.474Z,4.70
2019-04-25T14:11:11.562Z,4.75
2019-04-25T14:13:43.121Z,4.53
2019-04-25T14:16:34.920Z,4.15
2019-04-25T14:19:29.426Z,4.47
2019-04-25T14:22:04.314Z,4.08
2019-04-25T14:24:36.276Z,3.83
2019-04-25T14:27:08.593Z,4.72
2019-04-25T14:29:40.322Z,4.92
2019-04-25T14:32:13.641Z,4.70
2019-04-25T14:34:45.534Z,3.98
2019-04-25T14:37:17.413Z,4.95
2019-04-25T14:39:49.111Z,4.10
2019-04-25T14:42:21.037Z,4.80
2019-04-25T14:44:52.799Z,4.25
2019-04-25T14:47:24.516Z,4.42
2019-04-25T14:49:56.581Z,4.60
2019-04-25T14:52:28.159Z,4.50
2019-04-25T14:55:18.603Z,4.55
2019-04-25T14:57:50.571Z,5.05
2019-04-25T15:00:34.853Z,5.50
2019-04-25T15:03:06.818Z,5.00
2019-04-25T15:05:41.114Z,5.00
2019-04-25T15:08:12.150Z,4.37
2019-04-25T15:10:43.830Z,13.53
2019-04-25T15:13:15.699Z,4.97
2019-04-25T15:18:19.091Z,5.65
2019-04-25T15:20:50.882Z,4.78
2019-04-25T15:23:24.023Z,5.05
2019-04-25T15:25:56.093Z,5.08
2019-04-25T15:28:27.603Z,5.53
2019-04-25T15:30:59.590Z,5.58
2019-04-25T15:33:31.364Z,5.22
2019-04-25T15:36:12.669Z,4.30
2019-04-25T15:38:52.504Z,5.92
2019-04-25T15:41:46.064Z,5.00
2019-04-25T15:44:35.365Z,4.90
2019-04-25T15:47:10.564Z,4.53
2019-04-25T15:49:42.929Z,4.70
2019-04-25T15:52:14.753Z,3.50
2019-04-25T15:54:46.259Z,3.65
2019-04-25T15:57:17.840Z,4.20
2019-04-25T15:59:49.820Z,4.60
2019-04-25T16:02:21.639Z,3.92
2019-04-25T16:04:53.319Z,4.20
2019-04-25T16:07:25.197Z,4.92
2019-04-25T16:09:57.126Z,5.47
2019-04-25T16:12:29.229Z,3.83
2019-04-25T16:15:00.947Z,6.43
2019-04-25T16:17:32.951Z,4.67
2019-04-25T16:20:04.704Z,3.95
2019-04-25T16:22:36.679Z,3.62
2019-04-25T16:25:08.522Z,4.03
2019-04-25T16:27:41.064Z,4.05
2019-04-25T16:30:13.300Z,5.20
2019-04-25T16:32:45.040Z,6.40
2019-04-25T16:35:16.632Z,4.92
2019-04-25T16:37:48.762Z,5.45
2019-04-25T16:40:23.666Z,5.30
2019-04-25T16:42:56.118Z,4.17
2019-04-25T16:45:28.927Z,4.45
2019-04-25T16:48:01.402Z,4.65
2019-04-25T16:50:34.218Z,4.53
2019-04-25T16:53:06.123Z,4.80
2019-04-25T16:55:38.793Z,4.10
2019-04-25T16:58:10.687Z,4.67
2019-04-25T17:00:48.971Z,4.90
2019-04-25T17:03:23.161Z,4.53
2019-04-25T17:05:55.185Z,4.47
2019-04-25T17:08:26.952Z,6.03
2019-04-25T17:10:58.405Z,6.45
2019-04-25T17:13:32.109Z,4.95
2019-04-25T17:16:32.575Z,5.37
2019-04-25T17:19:08.914Z,6.67
2019-04-25T17:21:41.087Z,5.95
2019-04-25T17:24:12.635Z,6.57
2019-04-25T17:26:44.206Z,7.33
2019-04-25T17:29:19.463Z,7.05
2019-04-25T17:32:01.704Z,5.55
2019-04-25T17:35:04.768Z,4.85
2019-04-25T17:37:46.772Z,5.72
2019-04-25T17:40:21.421Z,6.60
2019-04-25T17:42:53.009Z,6.97
2019-04-25T17:45:29.199Z,6.72
2019-04-25T17:48:01.438Z,7.67
2019-04-25T17:50:34.165Z,8.40
2019-04-25T17:53:06.082Z,8.48
2019-04-25T17:55:37.613Z,7.75
2019-04-25T17:58:09.297Z,6.22
2019-04-25T18:00:42.840Z,6.78
2019-04-25T18:03:15.131Z,6.28
2019-04-25T18:05:46.943Z,5.83
2019-04-25T18:08:18.670Z,5.08
2019-04-25T18:10:50.783Z,4.70
2019-04-25T18:13:22.360Z,5.25
2019-04-25T18:16:12.836Z,5.20
2019-04-25T18:18:59.448Z,4.72
2019-04-25T18:21:31.943Z,5.22
2019-04-25T18:24:37.889Z,4.65
2019-04-25T18:27:16.446Z,4.92
2019-04-25T18:29:48.385Z,4.87
2019-04-25T18:32:20.247Z,4.50
2019-04-25T18:35:06.063Z,5.35
2019-04-25T18:38:05.810Z,5.45
2019-04-25T18:41:02.265Z,4.28
2019-04-25T18:43:39.979Z,5.62
2019-04-25T18:46:23.156Z,5.50
2019-04-25T18:48:54.842Z,6.12
2019-04-25T18:51:26.926Z,6.03
2019-04-25T18:54:13.603Z,5.30
2019-04-25T18:57:02.806Z,5.22
2019-04-25T18:59:46.065Z,5.03
2019-04-25T19:02:56.066Z,5.62
2019-04-25T19:05:55.588Z,6.00
2019-04-25T19:08:27.671Z,5.70
2019-04-25T19:10:59.277Z,6.58
2019-04-25T19:13:31.085Z,10.05
2019-04-25T19:16:02.694Z,11.10
2019-04-25T19:18:34.259Z,10.80
2019-04-25T19:21:06.199Z,9.18
2019-04-25T19:23:38.044Z,7.50
2019-04-25T19:26:10.005Z,5.90
2019-04-25T19:28:42.712Z,6.85
2019-04-25T19:31:14.658Z,6.25
2019-04-25T19:33:47.553Z,8.25
2019-04-25T19:36:19.349Z,8.68
2019-04-25T19:38:50.968Z,9.33
2019-04-25T19:41:31.896Z,10.85
2019-04-25T19:44:06.840Z,11.68
2019-04-25T19:46:41.467Z,12.05
2019-04-25T19:49:13.909Z,11.28
2019-04-25T19:51:45.653Z,8.90
2019-04-25T19:54:17.346Z,6.67
2019-04-25T19:56:49.610Z,12.00
2019-04-25T19:59:21.324Z,11.83
2019-04-25T20:01:55.160Z,29.90
2019-04-25T20:04:36.552Z,25.55
2019-04-25T20:07:17.555Z,24.65
2019-04-25T20:10:20.700Z,15.13
2019-04-25T20:12:54.876Z,12.07
2019-04-25T20:15:26.689Z,11.03
2019-04-25T20:17:58.561Z,11.65
2019-04-25T20:20:30.444Z,14.07
2019-04-25T20:23:02.397Z,13.30
2019-04-25T20:25:34.492Z,10.85
2019-04-25T20:28:06.166Z,10.90
2019-04-25T20:30:37.864Z,10.15
2019-04-25T20:33:09.377Z,9.35
2019-04-25T20:35:44.887Z,9.83
2019-04-25T20:38:17.461Z,10.08
2019-04-25T20:40:49.589Z,9.93
2019-04-25T20:43:21.394Z,10.97
2019-04-25T20:45:53.060Z,13.55
2019-04-25T20:48:25.423Z,12.78
2019-04-25T20:50:57.239Z,13.53
2019-04-25T20:53:28.866Z,15.95
2019-04-25T20:56:00.804Z,17.15
2019-04-25T20:58:32.922Z,15.98
2019-04-25T21:01:04.826Z,16.37
2019-04-25T21:03:36.603Z,17.35
2019-04-25T21:06:23.413Z,18.35
2019-04-25T21:08:57.549Z,16.73
2019-04-25T21:11:30.624Z,19.10
2019-04-25T21:14:19.632Z,19.25
2019-04-25T21:16:58.641Z,19.73
2019-04-25T21:19:32.498Z,18.35
2019-04-25T21:22:04.093Z,9.20
2019-04-25T21:24:35.740Z,8.68
2019-04-25T21:27:07.320Z,7.95
2019-04-25T21:29:39.181Z,9.65
2019-04-25T21:32:11.214Z,8.95
2019-04-25T21:34:43.195Z,8.58
2019-04-25T21:37:15.532Z,7.95
2019-04-25T21:39:59.680Z,8.08
2019-04-25T21:42:38.233Z,7.28
2019-04-25T21:45:11.146Z,9.75
2019-04-25T21:47:42.660Z,10.35
2019-04-25T21:50:14.826Z,9.45
2019-04-25T21:52:46.528Z,8.75
2019-04-25T21:55:18.560Z,9.00
2019-04-25T21:57:50.581Z,9.60
2019-04-25T22:00:40.209Z,10.60
2019-04-25T22:03:14.165Z,12.78
2019-04-25T22:05:46.286Z,12.98
2019-04-25T22:08:18.393Z,10.70
2019-04-25T22:10:50.825Z,9.98
2019-04-25T22:13:22.540Z,8.58
2019-04-25T22:15:55.094Z,8.95
2019-04-25T22:18:27.979Z,8.65
2019-04-25T22:21:00.224Z,8.93
2019-04-25T22:23:32.441Z,9.10
2019-04-25T22:26:04.909Z,10.98
2019-04-25T22:28:36.691Z,10.45
2019-04-25T22:31:16.432Z,8.68
2019-04-25T22:34:13.291Z,11.03
2019-04-25T22:36:45.435Z,8.50
2019-04-25T22:39:16.994Z,8.43
2019-04-25T22:41:49.100Z,8.90
2019-04-25T22:46:54.551Z,7.50
2019-04-25T22:49:26.323Z,8.53
2019-04-25T22:51:58.096Z,7.83
2019-04-25T22:54:30.462Z,8.35
2019-04-25T22:57:02.605Z,8.18
2019-04-25T22:59:34.763Z,7.65
2019-04-25T23:02:27.524Z,8.83
2019-04-25T23:05:12.927Z,9.05
2019-04-25T23:07:39.119Z,7.92
2019-04-25T23:10:12.431Z,8.17
2019-04-25T23:12:43.830Z,7.80
2019-04-25T23:15:15.827Z,7.95
2019-04-25T23:17:47.752Z,7.53
2019-04-25T23:20:19.839Z,7.62
2019-04-25T23:22:51.545Z,7.47
2019-04-25T23:25:29.007Z,7.80
2019-04-25T23:28:14.810Z,7.70
2019-04-25T23:31:05.390Z,8.05
2019-04-25T23:33:37.798Z,7.50
2019-04-25T23:36:09.899Z,8.03
2019-04-25T23:38:42.552Z,9.45
2019-04-25T23:41:15.566Z,8.75
2019-04-25T23:43:50.831Z,8.00
2019-04-25T23:46:22.558Z,8.13
2019-04-25T23:48:54.111Z,7.92
2019-04-25T23:51:25.608Z,8.38
2019-04-25T23:53:57.732Z,7.65
2019-04-25T23:56:29.421Z,7.90
2019-04-25T23:59:01.702Z,7.50
